Time;durP1;ratioP1;P1;durP2;ratioP2;P2;SDS_P1;SDS_P2;PMS_P1;PMS_P2;Temp;Humidity;BMP_temperature;BMP_pressure;BME280_temperature;BME280_humidity;BME280_pressure;Samples;Min_cycle;Max_cycle;Signal;HPM_P1;HPM_P2
2022/11/14 00:00:45;;;;;;;146.27;33.37;;;5.80;99.90;;;;;;10474438;28;20131;-82
2022/11/14 00:05:46;;;;;;;176.53;38.60;;;5.80;99.90;;;;;;10471495;28;20064;-81
2022/11/14 00:10:48;;;;;;;247.27;42.30;;;5.70;99.90;;;;;;10472027;28;20060;-81
2022/11/14 00:15:53;;;;;;;328.40;46.43;;;5.70;99.90;;;;;;10481236;28;20666;-80
2022/11/14 00:20:53;;;;;;;189.30;41.67;;;5.70;99.90;;;;;;10468639;28;20041;-81
2022/11/14 00:25:54;;;;;;;308.27;48.17;;;5.70;99.90;;;;;;10477242;28;20059;-80
2022/11/14 00:30:54;;;;;;;201.10;45.43;;;5.70;99.90;;;;;;10471012;28;20028;-80
2022/11/14 00:35:55;;;;;;;319.53;57.90;;;5.70;99.90;;;;;;10470102;28;20048;-80
2022/11/14 00:40:56;;;;;;;168.27;40.90;;;5.70;99.90;;;;;;10460750;28;20388;-81
2022/11/14 00:45:56;;;;;;;221.03;42.13;;;5.70;99.90;;;;;;10476905;28;20131;-81
2022/11/14 00:50:57;;;;;;;174.07;38.83;;;5.70;99.90;;;;;;10455812;28;20747;-81
2022/11/14 00:55:58;;;;;;;247.93;40.20;;;5.70;99.90;;;;;;10465876;28;20589;-80
2022/11/14 01:00:58;;;;;;;230.97;38.27;;;5.70;99.90;;;;;;10468429;28;20040;-82
2022/11/14 01:06:06;;;;;;;173.60;38.17;;;5.60;99.90;;;;;;10468632;28;20071;-81
2022/11/14 01:11:11;;;;;;;214.37;42.47;;;5.70;99.90;;;;;;10473872;28;20079;-81
2022/11/14 01:16:12;;;;;;;257.42;41.00;;;5.70;99.90;;;;;;10475800;28;20098;-80
2022/11/14 01:21:13;;;;;;;150.03;40.90;;;5.70;99.90;;;;;;10467371;28;20055;-79
2022/11/14 01:26:14;;;;;;;206.40;41.90;;;5.60;99.90;;;;;;10450700;28;20104;-81
2022/11/14 01:31:21;;;;;;;209.07;38.57;;;5.60;99.90;;;;;;10457231;28;20531;-80
2022/11/14 01:36:22;;;;;;;186.30;33.53;;;5.60;99.90;;;;;;10470550;28;20090;-81
2022/11/14 01:41:22;;;;;;;322.83;40.47;;;5.50;99.90;;;;;;10460353;28;20119;-80
2022/11/14 01:46:30;;;;;;;162.57;33.87;;;5.50;99.90;;;;;;10479056;28;20079;-80
2022/11/14 01:51:35;;;;;;;179.60;35.50;;;5.50;99.90;;;;;;10448169;28;20090;-82
2022/11/14 01:56:45;;;;;;;192.43;36.03;;;5.50;99.90;;;;;;10437739;28;20120;-80
2022/11/14 02:01:48;;;;;;;296.70;42.97;;;5.40;99.90;;;;;;10463226;28;20068;-81
2022/11/14 02:06:50;;;;;;;232.73;42.63;;;5.50;99.90;;;;;;10439149;28;20484;-81
2022/11/14 02:11:53;;;;;;;245.90;37.50;;;5.50;99.90;;;;;;10449210;28;20088;-80
2022/11/14 02:16:54;;;;;;;215.17;38.83;;;5.50;99.90;;;;;;10467416;28;20036;-82
2022/11/14 02:21:54;;;;;;;138.77;36.90;;;5.60;99.90;;;;;;10452836;28;20047;-82
2022/11/14 02:26:55;;;;;;;172.47;32.37;;;5.60;99.90;;;;;;10448691;28;20036;-81
2022/11/14 02:31:55;;;;;;;129.83;33.10;;;5.60;99.90;;;;;;10447798;28;20126;-81
2022/11/14 02:36:56;;;;;;;314.43;46.60;;;5.60;99.90;;;;;;10470888;28;20094;-80
2022/11/14 02:41:57;;;;;;;161.30;33.87;;;5.50;99.90;;;;;;10472717;28;20045;-80
2022/11/14 02:46:57;;;;;;;163.03;35.23;;;5.40;99.90;;;;;;10444913;28;20369;-81
2022/11/14 02:51:58;;;;;;;119.13;31.43;;;5.40;99.90;;;;;;10453510;28;20037;-80
2022/11/14 02:56:58;;;;;;;175.07;34.70;;;5.40;99.90;;;;;;10480376;28;20055;-80
2022/11/14 03:01:59;;;;;;;162.27;35.30;;;5.50;99.90;;;;;;10465242;28;20147;-80
2022/11/14 03:06:59;;;;;;;153.63;35.67;;;5.50;99.90;;;;;;10463082;28;20108;-80
2022/11/14 03:12:00;;;;;;;225.17;40.90;;;5.50;99.90;;;;;;10481069;28;20048;-81
2022/11/14 03:17:01;;;;;;;148.50;36.00;;;5.40;99.90;;;;;;10477662;28;20503;-80
2022/11/14 03:22:01;;;;;;;156.03;36.13;;;5.40;99.90;;;;;;10455555;28;20041;-80
2022/11/14 03:27:02;;;;;;;148.87;36.60;;;5.40;99.90;;;;;;10483391;28;20039;-80
2022/11/14 03:32:02;;;;;;;109.90;36.17;;;5.40;99.90;;;;;;10458702;28;20754;-81
2022/11/14 03:37:03;;;;;;;162.43;42.00;;;5.40;99.90;;;;;;10458190;28;20106;-81
2022/11/14 03:42:04;;;;;;;217.67;51.77;;;5.40;99.90;;;;;;10477541;28;20135;-80
2022/11/14 03:47:05;;;;;;;159.13;42.93;;;5.40;99.90;;;;;;10463037;28;20488;-81
2022/11/14 03:52:05;;;;;;;189.47;48.57;;;5.30;99.90;;;;;;10464159;28;20040;-80
2022/11/14 03:57:06;;;;;;;272.67;50.00;;;5.30;99.90;;;;;;10439710;28;20765;-81
2022/11/14 04:02:06;;;;;;;114.00;37.97;;;5.20;99.90;;;;;;10461863;28;20045;-81
2022/11/14 04:07:08;;;;;;;144.67;41.23;;;5.10;99.90;;;;;;10465841;28;20110;-81
2022/11/14 04:12:08;;;;;;;122.63;35.20;;;5.20;99.90;;;;;;10458873;28;20051;-80
2022/11/14 04:17:09;;;;;;;193.93;37.77;;;5.20;99.90;;;;;;10468838;28;20044;-79
2022/11/14 04:22:10;;;;;;;147.80;34.67;;;5.20;99.90;;;;;;10467807;28;20045;-80
2022/11/14 04:27:10;;;;;;;101.17;29.87;;;5.20;99.90;;;;;;10481524;28;20514;-79
2022/11/14 04:32:11;;;;;;;100.93;24.30;;;5.10;99.90;;;;;;10440660;28;20043;-79
2022/11/14 04:37:11;;;;;;;130.63;27.47;;;5.10;99.90;;;;;;10464225;28;20395;-81
2022/11/14 04:42:12;;;;;;;92.47;34.67;;;5.00;99.90;;;;;;10448970;28;20041;-80
2022/11/14 04:47:13;;;;;;;163.50;53.50;;;4.90;99.90;;;;;;10468348;28;20758;-81
2022/11/14 04:52:13;;;;;;;133.20;46.43;;;4.80;99.90;;;;;;10459465;28;20036;-80
2022/11/14 04:57:15;;;;;;;149.43;38.73;;;4.70;99.90;;;;;;10465059;28;20029;-79
2022/11/14 05:02:15;;;;;;;120.50;33.10;;;4.70;99.90;;;;;;10451647;28;20060;-79
2022/11/14 05:07:16;;;;;;;112.67;28.20;;;4.60;99.90;;;;;;10464277;28;20686;-80
2022/11/14 05:12:17;;;;;;;126.57;34.63;;;4.70;99.90;;;;;;10450420;28;20049;-80
2022/11/14 05:17:17;;;;;;;129.77;33.33;;;4.70;99.90;;;;;;10449539;28;20044;-79
2022/11/14 05:22:18;;;;;;;108.60;31.23;;;4.70;99.90;;;;;;10444986;28;20507;-79
2022/11/14 05:27:18;;;;;;;190.30;36.63;;;4.70;99.90;;;;;;10464951;28;20025;-79
2022/11/14 05:32:19;;;;;;;208.63;34.00;;;4.70;99.90;;;;;;10454969;28;20028;-79
2022/11/14 05:37:19;;;;;;;260.27;38.90;;;4.70;99.90;;;;;;10478405;28;20029;-79
2022/11/14 05:42:20;;;;;;;107.37;28.23;;;4.70;99.90;;;;;;10478102;28;20052;-78
2022/11/14 05:47:21;;;;;;;120.50;30.37;;;4.60;99.90;;;;;;10485642;28;20031;-79
2022/11/14 05:52:21;;;;;;;143.07;27.70;;;4.60;99.90;;;;;;10469350;28;20387;-80
2022/11/14 05:57:22;;;;;;;124.03;25.47;;;4.60;99.90;;;;;;10464201;28;20059;-79
2022/11/14 06:02:22;;;;;;;119.13;29.83;;;4.60;99.90;;;;;;10484643;28;20566;-79
2022/11/14 06:07:23;;;;;;;119.73;25.83;;;4.50;99.90;;;;;;10484979;28;20032;-80
2022/11/14 06:12:23;;;;;;;105.70;26.47;;;4.60;99.90;;;;;;10470288;28;20052;-79
2022/11/14 06:17:24;;;;;;;120.53;27.07;;;4.60;99.90;;;;;;10484831;28;20029;-79
2022/11/14 06:22:24;;;;;;;147.40;25.87;;;4.60;99.90;;;;;;10470000;28;20052;-79
2022/11/14 06:27:25;;;;;;;152.87;28.13;;;4.60;99.90;;;;;;10483939;28;20032;-79
2022/11/14 06:32:25;;;;;;;148.13;29.47;;;4.60;99.90;;;;;;10469910;28;20025;-80
2022/11/14 06:37:26;;;;;;;84.23;26.27;;;4.70;99.90;;;;;;10470885;28;20118;-79
2022/11/14 06:42:26;;;;;;;131.20;27.97;;;4.70;99.90;;;;;;10484763;28;20093;-80
2022/11/14 06:47:27;;;;;;;150.17;39.80;;;4.80;99.90;;;;;;10496303;28;20039;-80
2022/11/14 06:52:28;;;;;;;212.63;39.97;;;4.70;99.90;;;;;;10497271;28;20032;-79
2022/11/14 06:57:28;;;;;;;196.10;38.53;;;4.80;99.90;;;;;;10482688;28;20093;-81
2022/11/14 07:02:29;;;;;;;122.83;35.70;;;4.80;99.90;;;;;;10497194;28;20040;-79
2022/11/14 07:07:30;;;;;;;166.67;40.53;;;4.90;99.90;;;;;;10496632;28;20032;-79
2022/11/14 07:12:31;;;;;;;135.20;30.50;;;4.90;99.90;;;;;;10496895;28;20587;-79
2022/11/14 07:17:35;;;;;;;104.07;30.17;;;4.90;99.90;;;;;;10496597;28;20032;-80
2022/11/14 07:22:35;;;;;;;87.77;23.53;;;5.00;99.90;;;;;;10496630;28;20096;-79
2022/11/14 07:27:36;;;;;;;115.97;28.33;;;5.10;99.90;;;;;;10496806;28;20099;-80
2022/11/14 07:32:36;;;;;;;128.33;33.40;;;5.10;99.90;;;;;;10482276;28;20028;-79
2022/11/14 07:37:37;;;;;;;99.23;31.00;;;5.10;99.90;;;;;;10496245;28;20024;-78
2022/11/14 07:42:37;;;;;;;126.07;29.20;;;5.20;99.90;;;;;;10496320;28;20127;-81
2022/11/14 07:47:38;;;;;;;157.33;34.40;;;5.30;99.90;;;;;;10495731;28;20025;-79
2022/11/14 07:52:38;;;;;;;144.53;26.53;;;5.30;99.90;;;;;;10496046;28;20048;-80
2022/11/14 07:57:39;;;;;;;99.23;25.40;;;5.30;99.90;;;;;;10490167;28;20531;-79
2022/11/14 08:02:39;;;;;;;150.47;38.33;;;5.30;99.90;;;;;;10489121;28;20040;-80
2022/11/14 08:07:40;;;;;;;112.43;30.23;;;5.40;99.90;;;;;;10488622;28;20488;-80
2022/11/14 08:12:40;;;;;;;131.33;32.63;;;5.40;99.90;;;;;;10488452;28;20380;-79
2022/11/14 08:17:41;;;;;;;166.00;32.90;;;5.40;99.90;;;;;;10488545;28;20035;-80
2022/11/14 08:22:41;;;;;;;156.73;40.57;;;5.40;99.90;;;;;;10487678;28;20036;-80
2022/11/14 08:27:42;;;;;;;159.80;38.30;;;5.50;99.90;;;;;;10487695;28;20669;-80
2022/11/14 08:32:42;;;;;;;115.87;31.07;;;5.70;99.90;;;;;;10474108;28;20025;-79
2022/11/14 08:37:43;;;;;;;89.57;25.03;;;5.70;99.90;;;;;;10487870;28;20384;-79
2022/11/14 08:42:43;;;;;;;135.53;35.23;;;5.80;99.90;;;;;;10487745;28;20036;-78
2022/11/14 08:47:51;;;;;;;83.47;23.53;;;5.80;99.90;;;;;;10473220;28;20051;-79
2022/11/14 08:52:51;;;;;;;94.77;29.43;;;5.80;99.90;;;;;;10472914;28;20666;-79
2022/11/14 08:57:52;;;;;;;77.13;25.50;;;5.80;99.90;;;;;;10487120;28;20028;-79
2022/11/14 09:02:53;;;;;;;74.73;22.97;;;5.90;99.90;;;;;;10486330;28;20572;-78
2022/11/14 09:07:53;;;;;;;79.07;21.17;;;6.00;99.90;;;;;;10486016;28;20036;-79
2022/11/14 09:12:55;;;;;;;105.70;32.87;;;5.90;99.90;;;;;;10487054;28;20031;-79
2022/11/14 09:17:56;;;;;;;86.97;32.43;;;5.90;99.90;;;;;;10486227;28;20468;-79
2022/11/14 09:22:58;;;;;;;75.53;29.13;;;5.90;99.90;;;;;;10485981;28;20047;-79
2022/11/14 09:28:03;;;;;;;73.30;24.30;;;6.10;99.90;;;;;;10483596;28;20634;-78
2022/11/14 09:33:04;;;;;;;61.93;24.37;;;6.20;99.90;;;;;;10474178;28;20032;-80
2022/11/14 09:38:07;;;;;;;49.83;21.03;;;6.30;99.90;;;;;;10485500;28;20036;-79
2022/11/14 09:43:33;;;;;;;61.33;26.20;;;6.30;99.90;;;;;;10484857;28;20036;-80
2022/11/14 09:48:34;;;;;;;80.15;26.48;;;6.30;99.90;;;;;;10446516;28;20090;-79
2022/11/14 09:54:12;;;;;;;60.47;21.63;;;6.30;99.90;;;;;;10484888;28;20073;-79
2022/11/14 09:59:14;;;;;;;121.70;30.70;;;6.50;99.90;;;;;;10481429;28;20037;-79
2022/11/14 10:04:40;;;;;;;80.40;30.77;;;6.50;99.90;;;;;;10484256;28;20032;-80
2022/11/14 10:10:23;;;;;;;60.22;26.48;;;6.50;99.90;;;;;;10483553;28;20052;-81
2022/11/14 10:15:45;;;;;;;113.60;59.83;;;6.70;99.90;;;;;;10484095;28;20029;-80
2022/11/14 10:20:49;;;;;;;74.00;33.93;;;7.00;99.90;;;;;;10483112;28;20033;-79
2022/11/14 10:26:25;;;;;;;50.80;22.97;;;7.10;99.90;;;;;;10483727;28;20422;-80
2022/11/14 10:31:53;;;;;;;66.28;31.75;;;7.20;99.90;;;;;;10484237;28;20056;-80
2022/11/14 10:37:00;;;;;;;71.50;36.20;;;7.20;99.90;;;;;;10484137;28;20032;-79
2022/11/14 10:42:08;;;;;;;56.13;25.13;;;7.20;99.90;;;;;;10483610;28;20040;-79
2022/11/14 10:47:17;;;;;;;56.93;26.30;;;7.20;99.90;;;;;;10483922;28;20039;-79
2022/11/14 10:52:21;;;;;;;58.10;34.70;;;7.20;99.90;;;;;;10483367;28;20034;-80
2022/11/14 10:57:22;;;;;;;55.03;30.93;;;7.20;99.90;;;;;;10483216;28;20039;-80
2022/11/14 11:02:22;;;;;;;50.40;27.50;;;7.30;99.90;;;;;;10483458;28;20048;-78
2022/11/14 11:12:47;;;;;;;46.00;23.77;;;7.50;99.90;;;;;;10483819;28;20056;-80
2022/11/14 11:18:03;;;;;;;46.23;25.83;;;7.60;99.90;;;;;;10482896;28;20786;-80
2022/11/14 11:23:16;;;;;;;45.63;26.60;;;7.60;99.90;;;;;;10483067;28;20642;-80
2022/11/14 11:28:19;;;;;;;49.90;24.90;;;7.70;99.90;;;;;;10465184;28;20014;-78
2022/11/14 11:33:19;;;;;;;51.27;27.90;;;7.80;99.90;;;;;;10430884;28;20064;-79
2022/11/14 11:38:22;;;;;;;51.17;29.30;;;7.80;99.90;;;;;;10476228;28;20111;-79
2022/11/14 11:43:38;;;;;;;42.27;25.53;;;8.30;99.90;;;;;;10489263;28;20024;-79
2022/11/14 11:48:39;;;;;;;37.47;23.83;;;8.80;99.90;;;;;;10475429;28;20090;-79
2022/11/14 11:53:45;;;;;;;65.70;35.63;;;9.20;99.90;;;;;;10458302;28;20078;-78
2022/11/14 11:58:52;;;;;;;42.22;26.88;;;9.40;99.90;;;;;;10489591;28;20119;-80
2022/11/14 12:03:53;;;;;;;40.53;26.10;;;9.60;99.90;;;;;;10474788;28;20039;-80
2022/11/14 12:09:02;;;;;;;40.03;26.08;;;9.90;99.90;;;;;;10488808;28;20186;-80
2022/11/14 12:14:27;;;;;;;42.63;25.67;;;10.00;99.90;;;;;;10488400;28;20639;-79
2022/11/14 12:19:59;;;;;;;41.65;26.13;;;10.30;99.90;;;;;;10488950;28;20028;-79
2022/11/14 12:25:18;;;;;;;43.17;26.48;;;10.40;99.90;;;;;;10451666;28;20676;-79
2022/11/14 12:30:23;;;;;;;43.50;27.80;;;10.60;99.90;;;;;;10464472;28;20031;-80
2022/11/14 12:35:29;;;;;;;31.30;17.50;;;10.70;99.90;;;;;;10487416;28;20025;-79
2022/11/14 12:40:34;;;;;;;34.00;20.15;;;10.90;99.90;;;;;;10474596;28;20035;-79
2022/11/14 12:45:40;;;;;;;36.88;21.95;;;11.00;99.90;;;;;;10469185;28;20032;-80
2022/11/14 12:50:42;;;;;;;33.58;19.30;;;11.10;99.90;;;;;;10487074;28;20025;-78
2022/11/14 12:55:42;;;;;;;31.27;20.02;;;11.20;99.90;;;;;;10486822;28;20024;-80
2022/11/14 13:00:43;;;;;;;33.17;21.00;;;11.10;99.90;;;;;;10486703;28;20033;-79
2022/11/14 13:05:58;;;;;;;40.25;23.23;;;11.20;99.90;;;;;;10487193;28;20021;-79
2022/11/14 13:10:59;;;;;;;33.80;21.40;;;11.30;99.90;;;;;;10486205;28;20072;-79
2022/11/14 13:21:44;;;;;;;34.65;19.52;;;11.40;99.90;;;;;;10472228;28;20041;-79
2022/11/14 13:26:50;;;;;;;43.65;28.10;;;11.40;99.90;;;;;;10457968;28;20017;-79
2022/11/14 13:31:51;;;;;;;44.30;23.38;;;11.40;99.90;;;;;;10426519;28;20033;-80
2022/11/14 13:37:17;;;;;;;39.67;25.33;;;11.30;99.90;;;;;;10467645;28;20032;-78
2022/11/14 13:42:39;;;;;;;38.17;24.27;;;11.30;99.90;;;;;;10475412;28;20048;-79
2022/11/14 13:48:01;;;;;;;35.78;22.30;;;11.30;99.90;;;;;;10470478;28;20539;-79
2022/11/14 13:53:11;;;;;;;38.25;23.35;;;11.30;99.90;;;;;;10451741;28;20808;-79
2022/11/14 13:58:24;;;;;;;41.60;24.45;;;11.20;99.90;;;;;;10484989;28;20028;-81
2022/11/14 14:03:53;;;;;;;40.42;23.27;;;11.20;99.90;;;;;;10474774;28;20044;-80
2022/11/14 14:09:20;;;;;;;41.95;23.98;;;11.10;99.90;;;;;;10483580;28;20132;-80
2022/11/14 14:14:23;;;;;;;;;;;11.00;99.90;;;;;;10466153;28;20139;-80
2022/11/14 14:19:29;;;;;;;52.03;30.23;;;10.80;99.90;;;;;;10450233;28;19913;-80
2022/11/14 14:25:02;;;;;;;41.83;24.80;;;10.70;99.90;;;;;;10449393;28;20040;-80
2022/11/14 14:30:16;;;;;;;53.40;32.50;;;10.50;99.90;;;;;;10462866;28;20119;-83
2022/11/14 14:35:26;;;;;;;66.95;41.42;;;10.30;99.90;;;;;;10460517;28;20025;-80
2022/11/14 14:40:34;;;;;;;100.78;53.33;;;10.10;99.90;;;;;;10444700;28;20035;-80
2022/11/14 14:45:45;;;;;;;75.00;42.27;;;9.80;99.90;;;;;;10476242;28;20025;-80
2022/11/14 14:50:54;;;;;;;105.20;80.67;;;9.60;99.90;;;;;;10474408;28;20055;-80
2022/11/14 14:56:00;;;;;;;71.13;44.60;;;9.30;99.90;;;;;;10473039;28;20400;-80
2022/11/14 15:01:04;;;;;;;;;;;8.90;99.90;;;;;;10473073;28;20040;-82
2022/11/14 15:06:21;;;;;;;61.10;35.60;;;8.50;99.90;;;;;;10465104;28;19913;-80
2022/11/14 15:11:22;;;;;;;68.70;41.37;;;8.20;99.90;;;;;;10461484;28;20383;-82
2022/11/14 15:16:24;;;;;;;87.83;51.40;;;7.80;99.90;;;;;;10438847;28;20021;-80
2022/11/14 15:21:29;;;;;;;86.70;46.03;;;7.40;99.90;;;;;;10460139;28;20106;-80
2022/11/14 15:26:30;;;;;;;111.63;57.17;;;7.10;99.90;;;;;;10463898;28;20105;-79
2022/11/14 15:31:33;;;;;;;126.90;62.73;;;6.90;99.90;;;;;;10483731;28;20594;-80
2022/11/14 15:36:33;;;;;;;128.07;64.63;;;6.70;99.90;;;;;;10447053;28;20035;-81
2022/11/14 15:41:34;;;;;;;141.73;71.97;;;6.50;99.90;;;;;;10467352;28;20040;-80
2022/11/14 15:46:42;;;;;;;82.27;44.70;;;6.50;99.90;;;;;;10471094;28;20021;-79
2022/11/14 15:51:58;;;;;;;72.93;40.67;;;6.40;99.90;;;;;;10471170;28;20028;-81
2022/11/14 15:57:19;;;;;;;;;;;6.40;99.90;;;;;;10466184;28;20086;-81
2022/11/14 16:02:28;;;;;;;107.73;57.10;;;6.40;99.90;;;;;;10488629;28;19924;-79
2022/11/14 16:07:28;;;;;;;129.47;79.73;;;6.40;99.90;;;;;;10479532;28;20041;-80
2022/11/14 16:12:29;;;;;;;190.50;105.47;;;6.40;99.90;;;;;;10477629;28;20620;-80
2022/11/14 16:17:35;;;;;;;136.43;77.43;;;6.30;99.90;;;;;;10482915;28;20032;-81
2022/11/14 16:22:36;;;;;;;107.63;60.77;;;6.30;99.90;;;;;;10477427;28;20040;-81
2022/11/14 16:27:36;;;;;;;90.17;45.77;;;6.30;99.90;;;;;;10479636;28;20029;-80
2022/11/14 16:32:38;;;;;;;135.60;73.87;;;6.30;99.90;;;;;;10481995;28;20044;-81
2022/11/14 16:37:39;;;;;;;125.87;68.83;;;6.40;99.90;;;;;;10463374;28;20032;-79
2022/11/14 16:42:39;;;;;;;133.20;76.00;;;6.40;99.90;;;;;;10469263;28;20099;-79
2022/11/14 16:47:40;;;;;;;90.17;41.63;;;6.40;99.90;;;;;;10465052;28;20028;-80
2022/11/14 16:52:40;;;;;;;103.47;47.67;;;6.40;99.90;;;;;;10455372;28;20027;-79
2022/11/14 16:57:41;;;;;;;103.37;51.30;;;6.30;99.90;;;;;;10453978;28;20044;-80
2022/11/14 17:02:42;;;;;;;125.73;62.20;;;6.30;99.90;;;;;;10448251;28;20490;-79
2022/11/14 17:07:42;;;;;;;131.80;56.20;;;6.40;99.90;;;;;;10445376;28;20036;-79
2022/11/14 17:12:43;;;;;;;104.93;46.33;;;6.40;99.90;;;;;;10440053;28;20471;-77
2022/11/14 17:17:48;;;;;;;86.93;43.90;;;6.30;99.90;;;;;;10442829;28;20041;-79
2022/11/14 17:22:49;;;;;;;119.00;47.60;;;6.30;99.90;;;;;;10468389;28;20067;-79
2022/11/14 17:27:50;;;;;;;126.90;53.57;;;6.30;99.90;;;;;;10455068;28;20036;-79
2022/11/14 17:32:50;;;;;;;141.83;57.73;;;6.20;99.90;;;;;;10444516;28;20029;-79
2022/11/14 17:37:51;;;;;;;128.00;54.63;;;6.10;99.90;;;;;;10458538;28;20029;-78
2022/11/14 17:42:52;;;;;;;133.43;51.73;;;6.10;99.90;;;;;;10441242;28;20455;-79
2022/11/14 17:47:52;;;;;;;113.33;50.40;;;6.10;99.90;;;;;;10458679;28;20029;-79
2022/11/14 17:52:53;;;;;;;96.40;43.90;;;6.10;99.90;;;;;;10447642;28;20060;-79
2022/11/14 17:57:53;;;;;;;138.00;61.63;;;6.10;99.90;;;;;;10466842;28;20033;-79
2022/11/14 18:02:54;;;;;;;141.63;71.40;;;6.10;99.90;;;;;;10447682;28;20047;-79
2022/11/14 18:07:54;;;;;;;177.80;71.50;;;6.10;99.90;;;;;;10458361;28;20033;-79
2022/11/14 18:12:55;;;;;;;115.90;58.07;;;6.10;99.90;;;;;;10449671;28;20484;-79
2022/11/14 18:17:56;;;;;;;148.30;62.47;;;6.10;99.90;;;;;;10463081;28;20679;-79
2022/11/14 18:22:56;;;;;;;129.43;56.37;;;6.00;99.90;;;;;;10445636;28;20041;-79
2022/11/14 18:27:57;;;;;;;131.90;57.33;;;6.00;99.90;;;;;;10463460;28;20032;-80
2022/11/14 18:32:57;;;;;;;97.43;40.37;;;6.00;99.90;;;;;;10445585;28;20051;-79
2022/11/14 18:37:58;;;;;;;114.50;49.57;;;6.00;99.90;;;;;;10461525;28;20086;-79
2022/11/14 18:42:58;;;;;;;107.80;36.87;;;6.00;99.90;;;;;;10471493;28;20041;-77
2022/11/14 18:47:59;;;;;;;89.83;36.20;;;6.00;99.90;;;;;;10470268;28;20480;-77
2022/11/14 18:52:59;;;;;;;80.07;34.30;;;5.90;99.90;;;;;;10483107;28;20052;-78
2022/11/14 18:58:00;;;;;;;107.23;38.23;;;5.90;99.90;;;;;;10469182;28;20025;-76
2022/11/14 19:03:01;;;;;;;103.97;33.63;;;5.90;99.90;;;;;;10460102;28;20237;-78
2022/11/14 19:08:02;;;;;;;162.70;55.07;;;5.80;99.90;;;;;;10450007;28;20048;-78
2022/11/14 19:13:02;;;;;;;188.73;46.27;;;5.80;99.90;;;;;;10463045;28;20032;-79
2022/11/14 19:18:03;;;;;;;102.60;40.83;;;5.70;99.90;;;;;;10454116;28;20439;-76
2022/11/14 19:23:03;;;;;;;99.87;36.77;;;5.70;99.90;;;;;;10454620;28;20056;-78
2022/11/14 19:28:04;;;;;;;161.90;39.17;;;5.80;99.90;;;;;;10467779;28;20380;-78
2022/11/14 19:33:05;;;;;;;121.77;37.67;;;5.70;99.90;;;;;;10462166;28;20032;-81
2022/11/14 19:38:05;;;;;;;128.73;38.30;;;5.60;99.90;;;;;;10467739;28;20047;-80
2022/11/14 19:43:07;;;;;;;109.97;34.93;;;5.60;99.90;;;;;;10454733;28;20145;-80
2022/11/14 19:48:08;;;;;;;149.33;40.77;;;5.60;99.90;;;;;;10459108;28;20053;-78
2022/11/14 19:53:09;;;;;;;130.87;41.90;;;5.50;99.90;;;;;;10471829;28;20131;-78
2022/11/14 19:58:09;;;;;;;153.57;48.50;;;5.60;99.90;;;;;;10459397;28;20384;-80
2022/11/14 20:03:10;;;;;;;152.70;41.27;;;5.60;99.90;;;;;;10468233;28;20041;-78
2022/11/14 20:08:11;;;;;;;153.73;41.07;;;5.60;99.90;;;;;;10485347;28;20041;-81
2022/11/14 20:13:13;;;;;;;128.97;37.27;;;5.60;99.90;;;;;;10480686;28;20037;-80
2022/11/14 20:18:13;;;;;;;124.27;39.90;;;5.50;99.90;;;;;;10455726;28;20024;-80
2022/11/14 20:23:14;;;;;;;98.83;39.60;;;5.60;99.90;;;;;;10454787;28;20040;-80
2022/11/14 20:28:14;;;;;;;93.53;34.43;;;5.60;99.90;;;;;;10476843;28;20226;-78
2022/11/14 20:33:15;;;;;;;131.53;46.40;;;5.60;99.90;;;;;;10464390;28;20443;-79
2022/11/14 20:38:16;;;;;;;139.73;41.93;;;5.70;99.90;;;;;;10462857;28;20039;-79
2022/11/14 20:43:16;;;;;;;145.83;41.97;;;5.60;99.90;;;;;;10487827;28;20743;-78
2022/11/14 20:48:17;;;;;;;129.93;37.73;;;5.60;99.90;;;;;;10459633;28;20647;-79
2022/11/14 20:53:18;;;;;;;111.03;36.23;;;5.60;99.90;;;;;;10472924;28;20036;-78
2022/11/14 20:58:19;;;;;;;154.23;39.70;;;5.50;99.90;;;;;;10479675;28;20429;-78
2022/11/14 21:03:20;;;;;;;130.37;50.53;;;5.50;99.90;;;;;;10477847;28;20036;-78
2022/11/14 21:08:20;;;;;;;251.77;77.53;;;5.50;99.90;;;;;;10472160;28;20056;-80
2022/11/14 21:18:40;;;;;;;178.17;51.50;;;5.40;99.90;;;;;;10463192;28;20052;-79
2022/11/14 21:23:42;;;;;;;123.43;40.70;;;5.30;99.90;;;;;;10469897;28;20040;-79
2022/11/14 21:28:46;;;;;;;134.83;34.27;;;5.30;99.90;;;;;;10463172;28;20028;-78
2022/11/14 21:33:48;;;;;;;160.07;54.83;;;5.40;99.90;;;;;;10466203;28;20400;-78
2022/11/14 21:38:49;;;;;;;115.83;42.93;;;5.40;99.90;;;;;;10467964;28;20708;-78
2022/11/14 21:43:57;;;;;;;117.33;40.60;;;5.30;99.90;;;;;;10453545;28;20210;-79
2022/11/14 21:48:58;;;;;;;131.93;36.60;;;5.40;99.90;;;;;;10452232;28;20033;-79
2022/11/14 21:53:59;;;;;;;105.47;36.93;;;5.30;99.90;;;;;;10461428;28;20645;-79
2022/11/14 21:59:13;;;;;;;121.90;39.43;;;5.40;99.90;;;;;;10485053;28;20032;-78
2022/11/14 22:04:14;;;;;;;84.33;33.93;;;5.40;99.90;;;;;;10470106;28;20478;-78
2022/11/14 22:09:14;;;;;;;83.33;31.57;;;5.30;99.90;;;;;;10468549;28;20090;-79
2022/11/14 22:14:15;;;;;;;123.53;39.17;;;5.30;99.90;;;;;;10472849;28;20207;-78
2022/11/14 22:19:15;;;;;;;174.83;37.03;;;5.30;99.90;;;;;;10470793;28;20079;-78
2022/11/14 22:24:16;;;;;;;96.23;34.63;;;5.30;99.90;;;;;;10472139;28;20051;-79
2022/11/14 22:29:17;;;;;;;111.50;35.70;;;5.30;99.90;;;;;;10483884;28;20028;-78
2022/11/14 22:34:17;;;;;;;103.63;33.53;;;5.30;99.90;;;;;;10471095;28;20473;-79
2022/11/14 22:39:18;;;;;;;147.67;39.13;;;5.20;99.90;;;;;;10456065;28;20033;-79
2022/11/14 22:44:18;;;;;;;89.50;34.03;;;5.30;99.90;;;;;;10469926;28;20041;-78
2022/11/14 22:49:19;;;;;;;147.20;32.13;;;5.30;99.90;;;;;;10468351;28;20061;-78
2022/11/14 22:54:19;;;;;;;109.50;29.87;;;5.20;99.90;;;;;;10478491;28;20029;-78
2022/11/14 22:59:20;;;;;;;174.80;41.23;;;5.20;99.90;;;;;;10476795;28;20032;-79
2022/11/14 23:04:20;;;;;;;130.93;36.03;;;5.20;99.90;;;;;;10475769;28;20607;-79
2022/11/14 23:09:21;;;;;;;90.30;28.80;;;5.20;99.90;;;;;;10472502;28;20060;-79
2022/11/14 23:14:21;;;;;;;88.23;28.57;;;5.20;99.90;;;;;;10467348;28;20042;-80
2022/11/14 23:19:22;;;;;;;138.97;29.67;;;5.20;99.90;;;;;;10468023;28;20024;-78
2022/11/14 23:24:23;;;;;;;92.77;29.73;;;5.20;99.90;;;;;;10471037;28;20068;-79
2022/11/14 23:29:23;;;;;;;121.87;31.47;;;5.20;99.90;;;;;;10450524;28;20102;-79
2022/11/14 23:34:24;;;;;;;91.40;29.00;;;5.20;99.90;;;;;;10478990;28;20761;-78
2022/11/14 23:39:24;;;;;;;130.20;33.20;;;5.20;99.90;;;;;;10468513;28;20028;-78
2022/11/14 23:44:25;;;;;;;146.90;33.67;;;5.10;99.90;;;;;;10480543;28;20044;-78
2022/11/14 23:49:25;;;;;;;145.07;34.63;;;5.10;99.90;;;;;;10461107;28;20122;-78
2022/11/14 23:54:26;;;;;;;144.73;35.37;;;5.10;99.90;;;;;;10465405;28;20047;-79
2022/11/14 23:59:26;;;;;;;155.47;35.20;;;5.00;99.90;;;;;;10489544;28;20037;-79
